Terminal Aerodrome Forecast
Issued by NWS

Home | Current Version | Previous Version | Text Only | Print | Product List | Glossary On
Versions: 1 2 3 4 5 6 7 8 9 10 11 12 13
980
FTUS42 TJSJ 191124
TAFJBQ
TAF
TJBQ 191124Z 1912/2012 11005KT P6SM SKC
     FM191430 05010KT P6SM FEW025
     FM192300 12005KT P6SM FEW030
      AMD NOT SKED 2002/2011=

USA.gov is the U.S. government's official web portal to all federal, state and local government web resources and services.